createdAt,value
2022-12-01T00:04:48.062Z,100943.81
2022-12-01T00:10:08.015Z,100945.09
2022-12-01T00:15:10.662Z,100938.78
2022-12-01T00:20:12.177Z,100943.00
2022-12-01T00:25:14.168Z,100938.16
2022-12-01T00:30:16.033Z,100942.59
2022-12-01T00:35:17.542Z,100937.75
2022-12-01T00:40:19.042Z,100932.13
2022-12-01T00:45:20.425Z,100928.97
2022-12-01T00:50:21.795Z,100933.75
2022-12-01T00:55:23.186Z,100933.56
2022-12-01T01:00:24.594Z,100935.22
2022-12-01T01:05:25.967Z,100932.94
2022-12-01T01:10:27.352Z,100936.06
2022-12-01T01:15:28.741Z,100938.81
2022-12-01T01:20:30.149Z,100939.66
2022-12-01T01:25:31.947Z,100941.09
2022-12-01T01:30:33.750Z,100938.38
2022-12-01T01:35:35.181Z,100948.44
2022-12-01T01:40:45.526Z,100941.53
2022-12-01T01:45:46.943Z,100957.28
2022-12-01T01:50:48.376Z,100946.56
2022-12-01T01:55:49.759Z,100948.06
2022-12-01T02:00:51.208Z,100949.94
2022-12-01T02:05:52.648Z,100950.56
2022-12-01T02:11:03.312Z,100946.38
2022-12-01T02:16:22.875Z,100942.59
2022-12-01T02:21:42.811Z,100943.22
2022-12-01T02:26:55.623Z,100944.25
2022-12-01T02:32:18.676Z,100937.97
2022-12-01T02:37:45.641Z,100945.09
2022-12-01T02:43:05.780Z,100948.25
2022-12-01T02:48:12.955Z,100956.88
2022-12-01T02:53:15.543Z,100956.03
2022-12-01T02:58:16.923Z,100954.75
2022-12-01T03:03:47.482Z,100952.25
2022-12-01T03:09:27.161Z,100956.88
2022-12-01T03:14:44.983Z,100940.91
2022-12-01T03:19:48.969Z,100931.88
2022-12-01T03:24:50.567Z,100938.63
2022-12-01T03:29:52.240Z,100946.16
2022-12-01T03:34:59.068Z,100950.97
2022-12-01T03:40:01.401Z,100948.88
2022-12-01T03:45:06.676Z,100953.09
2022-12-01T03:50:09.718Z,100953.72
2022-12-01T03:55:24.451Z,100954.34
2022-12-01T04:00:25.852Z,100958.97
2022-12-01T04:05:27.289Z,100959.78
2022-12-01T04:10:28.703Z,100961.28
2022-12-01T04:15:30.074Z,100954.75
2022-12-01T04:20:31.459Z,100953.09
2022-12-01T04:25:32.847Z,100961.28
2022-12-01T04:30:34.211Z,100959.59
2022-12-01T04:35:35.583Z,100957.72
2022-12-01T04:40:38.355Z,100956.44
2022-12-01T04:45:39.767Z,100961.47
2022-12-01T04:50:41.361Z,100963.16
2022-12-01T04:55:42.771Z,100954.75
2022-12-01T05:00:44.226Z,100958.13
2022-12-01T05:05:45.639Z,100959.59
2022-12-01T05:10:47.019Z,100961.72
2022-12-01T05:15:48.832Z,100972.19
2022-12-01T05:20:58.951Z,100971.75
2022-12-01T05:26:00.565Z,100973.66
2022-12-01T05:31:02.055Z,100972.59
2022-12-01T05:36:03.861Z,100971.72
2022-12-01T05:41:05.317Z,100969.41
2022-12-01T05:46:06.743Z,100976.13
2022-12-01T05:51:11.869Z,100980.31
2022-12-01T05:56:13.308Z,100987.25
2022-12-01T06:01:14.755Z,100983.06
2022-12-01T06:06:16.138Z,100994.59
2022-12-01T06:11:17.516Z,100990.81
2022-12-01T06:16:18.944Z,100984.75
2022-12-01T06:21:20.356Z,100991.25
2022-12-01T06:26:21.719Z,101000.88
2022-12-01T06:31:23.133Z,100994.16
2022-12-01T06:36:24.539Z,100998.78
2022-12-01T06:41:25.919Z,100998.56
2022-12-01T06:46:27.416Z,101002.31
2022-12-01T06:51:30.314Z,101012.00
2022-12-01T06:56:31.695Z,101017.28
2022-12-01T07:01:33.380Z,101009.06
2022-12-01T07:06:34.831Z,101013.44
2022-12-01T07:11:36.839Z,101020.59
2022-12-01T07:16:38.272Z,101036.31
2022-12-01T07:21:39.996Z,101044.69
2022-12-01T07:26:41.470Z,101041.09
2022-12-01T07:31:43.755Z,101046.59
2022-12-01T07:36:45.155Z,101047.16
2022-12-01T07:41:46.547Z,101045.84
2022-12-01T07:46:47.951Z,101043.91
2022-12-01T07:51:49.316Z,101050.63
2022-12-01T07:56:50.703Z,101039.91
2022-12-01T08:01:52.116Z,101048.69
2022-12-01T08:06:53.533Z,101045.75
2022-12-01T08:11:54.927Z,101048.66
2022-12-01T08:16:56.310Z,101051.69
2022-12-01T08:21:57.713Z,101049.22
2022-12-01T08:26:59.091Z,101048.63
2022-12-01T08:32:00.484Z,101048.63
2022-12-01T08:37:01.877Z,101055.13
2022-12-01T08:42:03.297Z,101051.34
2022-12-01T08:47:04.707Z,101055.13
2022-12-01T08:52:06.080Z,101058.31
2022-12-01T08:57:10.300Z,101052.47
2022-12-01T09:02:14.967Z,101056.00
2022-12-01T09:07:20.255Z,101063.59
2022-12-01T09:12:25.945Z,101061.91
2022-12-01T09:17:27.340Z,101065.28
2022-12-01T09:22:28.923Z,101072.41
2022-12-01T09:27:30.332Z,101065.31
2022-12-01T09:32:31.707Z,101064.88
2022-12-01T09:37:33.092Z,101068.66
2022-12-01T09:42:35.678Z,101064.44
2022-12-01T09:47:37.424Z,101061.91
2022-12-01T09:52:44.666Z,101063.41
2022-12-01T09:57:47.624Z,101049.94
2022-12-01T10:02:50.791Z,101047.81
2022-12-01T10:07:53.702Z,101049.91
2022-12-01T10:12:55.160Z,101048.63
2022-12-01T10:18:21.505Z,101051.34
2022-12-01T10:23:33.451Z,101042.91
2022-12-01T10:29:03.048Z,101046.22
2022-12-01T10:34:14.205Z,101042.03
2022-12-01T10:39:37.671Z,101038.25
2022-12-01T10:44:40.079Z,101027.91
2022-12-01T10:49:41.521Z,101027.28
2022-12-01T10:54:42.891Z,101018.38
2022-12-01T10:59:49.112Z,101023.69
2022-12-01T11:05:07.633Z,101045.50
2022-12-01T11:10:16.104Z,101011.22
2022-12-01T11:15:25.486Z,101011.38
2022-12-01T11:20:31.321Z,101019.66
2022-12-01T11:25:32.717Z,101002.41
2022-12-01T11:30:34.099Z,101007.88
2022-12-01T11:35:36.675Z,101006.63
2022-12-01T11:40:58.262Z,100999.50
2022-12-01T11:46:02.310Z,100999.50
2022-12-01T11:51:19.582Z,100989.44
2022-12-01T11:56:25.708Z,100991.53
2022-12-01T12:01:41.729Z,100977.69
2022-12-01T12:06:55.558Z,100977.53
2022-12-01T12:12:27.112Z,100973.75
2022-12-01T12:17:57.974Z,100973.03
2022-12-01T12:23:16.274Z,100975.72
2022-12-01T12:28:52.603Z,100974.66
2022-12-01T12:34:14.272Z,100972.53
2022-12-01T12:39:18.553Z,100972.94
2022-12-01T12:44:42.592Z,100974.16
2022-12-01T12:49:51.778Z,100977.06
2022-12-01T12:54:57.304Z,100970.63
2022-12-01T13:00:16.705Z,100965.00
2022-12-01T13:05:50.646Z,100981.00
2022-12-01T13:11:06.570Z,100969.72
2022-12-01T13:16:13.762Z,100967.84
2022-12-01T13:21:20.069Z,100960.50
2022-12-01T13:26:21.504Z,100959.50
2022-12-01T13:31:23.010Z,100966.06
2022-12-01T13:36:46.656Z,100968.84
2022-12-01T13:41:45.847Z,100970.78
2022-12-01T13:46:47.118Z,100970.34
2022-12-01T13:52:22.389Z,100968.09
2022-12-01T13:57:26.970Z,100967.47
2022-12-01T14:02:38.173Z,100964.91
2022-12-01T14:07:39.898Z,100959.84
2022-12-01T14:12:44.427Z,100957.13
2022-12-01T14:17:45.806Z,100956.88
2022-12-01T14:22:50.173Z,100952.25
2022-12-01T14:27:57.503Z,100951.66
2022-12-01T14:33:36.325Z,100953.34
2022-12-01T14:38:37.747Z,100957.72
2022-12-01T14:43:57.679Z,100953.53
2022-12-01T14:48:59.062Z,100954.41
2022-12-01T14:54:02.920Z,100946.19
2022-12-01T14:59:21.941Z,100949.31
2022-12-01T15:04:23.344Z,100935.69
2022-12-01T15:09:33.343Z,100933.63
2022-12-01T15:14:46.464Z,100931.91
2022-12-01T15:19:48.203Z,100935.69
2022-12-01T15:24:50.187Z,100942.00
2022-12-01T15:29:52.112Z,100933.38
2022-12-01T15:34:54.211Z,100928.94
2022-12-01T15:40:35.737Z,100943.91
2022-12-01T15:45:21.603Z,100939.72
2022-12-01T15:50:30.880Z,100938.44
2022-12-01T15:55:33.749Z,100941.59
2022-12-01T16:00:35.156Z,100946.47
2022-12-01T16:05:36.562Z,100942.63
2022-12-01T16:10:37.928Z,100938.63
2022-12-01T16:15:43.564Z,100950.03
2022-12-01T16:20:44.933Z,100953.13
2022-12-01T16:25:47.538Z,100952.97
2022-12-01T16:30:48.942Z,100946.66
2022-12-01T16:35:50.481Z,100947.06
2022-12-01T16:40:53.133Z,100939.31
2022-12-01T16:46:00.125Z,100956.53
2022-12-01T16:51:02.359Z,100952.13
2022-12-01T16:56:03.920Z,100952.78
2022-12-01T17:01:06.084Z,100953.81
2022-12-01T17:06:07.817Z,100955.72
2022-12-01T17:11:09.352Z,100954.47
2022-12-01T17:16:15.320Z,100962.66
2022-12-01T17:21:19.631Z,100949.50
2022-12-01T17:26:21.165Z,100950.94
2022-12-01T17:31:22.616Z,100942.56
2022-12-01T17:36:24.083Z,100950.34
2022-12-01T17:41:31.912Z,100953.00
2022-12-01T17:46:33.431Z,100951.59
2022-12-01T17:51:38.368Z,100950.53
2022-12-01T17:56:39.748Z,100944.66
2022-12-01T18:01:43.115Z,100958.72
2022-12-01T18:06:46.883Z,100957.47
2022-12-01T18:11:54.053Z,100959.41
2022-12-01T18:16:55.423Z,100959.59
2022-12-01T18:21:56.795Z,100958.72
2022-12-01T18:26:58.216Z,100960.44
2022-12-01T18:31:59.847Z,100960.22
2022-12-01T18:37:02.428Z,100946.34
2022-12-01T18:42:03.887Z,100945.94
2022-12-01T18:47:06.325Z,100942.38
2022-12-01T18:52:07.761Z,100941.94
2022-12-01T18:57:09.127Z,100935.88
2022-12-01T19:02:10.663Z,100933.53
2022-12-01T19:07:12.052Z,100942.78
2022-12-01T19:12:13.479Z,100933.38
2022-12-01T19:17:14.878Z,100936.09
2022-12-01T19:22:16.248Z,100927.22
2022-12-01T19:27:20.504Z,100926.38
2022-12-01T19:32:21.900Z,100935.41
2022-12-01T19:37:23.278Z,100929.34
2022-12-01T19:42:24.669Z,100933.78
2022-12-01T19:47:26.596Z,100929.34
2022-12-01T19:52:28.550Z,100925.56
2022-12-01T19:57:29.948Z,100926.63
2022-12-01T20:02:31.401Z,100917.59
2022-12-01T20:07:32.837Z,100927.66
2022-12-01T20:12:34.423Z,100922.19
2022-12-01T20:17:36.518Z,100926.00
2022-12-01T20:22:37.995Z,100919.28
2022-12-01T20:27:39.565Z,100919.03
2022-12-01T20:32:40.954Z,100919.03
2022-12-01T20:37:42.331Z,100920.50
2022-12-01T20:42:43.720Z,100914.25
2022-12-01T20:47:45.096Z,100914.41
2022-12-01T20:52:46.465Z,100910.00
2022-12-01T20:57:47.872Z,100901.00
2022-12-01T21:02:49.401Z,100894.88
2022-12-01T21:07:50.889Z,100894.44
2022-12-01T21:13:13.450Z,100902.47
2022-12-01T21:18:20.712Z,100896.16
2022-12-01T21:23:22.308Z,100896.34
2022-12-01T21:28:24.625Z,100899.91
2022-12-01T21:33:33.424Z,100900.75
2022-12-01T21:38:34.792Z,100897.84
2022-12-01T21:43:38.371Z,100904.31
2022-12-01T21:48:40.039Z,100904.97
2022-12-01T21:53:41.469Z,100892.78
2022-12-01T21:58:42.842Z,100884.63
2022-12-01T22:03:45.468Z,100879.56
2022-12-01T22:08:49.387Z,100883.59
2022-12-01T22:14:09.639Z,100886.31
2022-12-01T22:19:16.875Z,100886.31
2022-12-01T22:24:22.129Z,100877.28
2022-12-01T22:29:28.584Z,100887.94
2022-12-01T22:34:30.057Z,100887.38
2022-12-01T22:39:33.898Z,100870.72
2022-12-01T22:44:35.284Z,100877.44
2022-12-01T22:49:36.713Z,100871.81
2022-12-01T22:54:39.436Z,100862.56
2022-12-01T22:59:42.141Z,100857.09
2022-12-01T23:04:44.823Z,100854.16
2022-12-01T23:09:46.191Z,100860.84
2022-12-01T23:14:49.429Z,100849.91
2022-12-01T23:19:52.359Z,100844.50
2022-12-01T23:24:53.875Z,100835.88
2022-12-01T23:29:55.248Z,100838.22
2022-12-01T23:35:00.207Z,100825.16
2022-12-01T23:40:04.848Z,100835.47
2022-12-01T23:45:27.186Z,100825.84
2022-12-01T23:50:28.561Z,100821.38
2022-12-01T23:55:30.141Z,100823.25
